Time;durP1;ratioP1;P1;durP2;ratioP2;P2;SDS_P1;SDS_P2;PMS_P1;PMS_P2;Temp;Humidity;BMP_temperature;BMP_pressure;BME280_temperature;BME280_humidity;BME280_pressure;Samples;Min_cycle;Max_cycle;Signal;HPM_P1;HPM_P2
2021/04/18 00:00:37;;;;;;;40.80;15.83;;;;;;;7.51;100.00;101344.78;1621333;88;20985;-89
2021/04/18 00:03:04;;;;;;;42.23;17.80;;;;;;;7.49;100.00;101344.17;1616988;88;21179;-88
2021/04/18 00:05:31;;;;;;;48.33;17.23;;;;;;;7.44;100.00;101338.64;1617126;88;21642;-88
2021/04/18 00:08:03;;;;;;;41.35;17.52;;;;;;;7.35;100.00;101342.13;1617179;88;21240;-89
2021/04/18 00:10:35;;;;;;;43.58;17.15;;;;;;;7.34;100.00;101342.36;1616892;87;21175;-88
2021/04/18 00:13:06;;;;;;;42.70;15.95;;;;;;;7.33;100.00;101336.71;1616990;88;21187;-88
2021/04/18 00:15:33;;;;;;;45.12;15.48;;;;;;;7.26;100.00;101333.56;1617011;88;21160;-88
2021/04/18 00:18:00;;;;;;;45.60;17.35;;;;;;;7.24;100.00;101341.52;1617064;87;21190;-88
2021/04/18 00:20:26;;;;;;;43.20;15.98;;;;;;;7.23;100.00;101329.95;1600665;88;21611;-88
2021/04/18 00:22:52;;;;;;;42.35;16.02;;;;;;;7.23;100.00;101331.82;1617078;87;21635;-89
2021/04/18 00:25:20;;;;;;;43.60;16.17;;;;;;;7.22;100.00;101328.33;1617075;88;20961;-88
2021/04/18 00:27:47;;;;;;;47.73;18.15;;;;;;;7.19;100.00;101323.41;1617057;88;21151;-88
2021/04/18 00:30:17;;;;;;;39.60;15.65;;;;;;;7.14;100.00;101324.57;1617027;87;21235;-88
2021/04/18 00:32:43;;;;;;;42.53;16.57;;;;;;;7.10;100.00;101324.72;1617011;88;21423;-88
2021/04/18 00:35:11;;;;;;;43.55;17.35;;;;;;;7.08;100.00;101319.27;1617049;88;21578;-88
2021/04/18 00:37:39;;;;;;;43.58;15.45;;;;;;;7.06;100.00;101326.20;1616876;87;21255;-89
2021/04/18 00:40:09;;;;;;;46.13;17.98;;;;;;;7.05;100.00;101322.68;1616989;87;21171;-88
2021/04/18 00:42:36;;;;;;;45.28;18.07;;;;;;;7.04;100.00;101315.69;1617059;88;21218;-88
2021/04/18 00:45:04;;;;;;;46.77;17.12;;;;;;;7.04;100.00;101319.71;1621576;87;21213;-88
2021/04/18 00:47:31;;;;;;;45.63;16.30;;;;;;;7.01;100.00;101318.81;1625662;88;21174;-89
2021/04/18 00:50:00;;;;;;;38.35;15.78;;;;;;;7.02;100.00;101318.28;1625585;88;21586;-88
2021/04/18 00:52:26;;;;;;;39.42;15.43;;;;;;;7.03;100.00;101324.78;1625736;88;21665;-88
2021/04/18 00:54:52;;;;;;;44.42;17.07;;;;;;;7.01;100.00;101323.35;1625818;87;21148;-90
2021/04/18 00:57:19;;;;;;;43.28;16.90;;;;;;;6.98;100.00;101327.81;1625651;87;21252;-88
2021/04/18 00:59:45;;;;;;;43.73;16.32;;;;;;;6.89;100.00;101327.25;1625650;88;21245;-89
2021/04/18 01:02:11;;;;;;;46.73;17.05;;;;;;;6.86;100.00;101326.34;1625593;87;21173;-88
2021/04/18 01:04:37;;;;;;;41.77;16.32;;;;;;;6.85;100.00;101324.69;1625630;87;21246;-89
2021/04/18 01:07:03;;;;;;;38.75;16.40;;;;;;;6.83;100.00;101324.92;1625690;88;20994;-88
2021/04/18 01:09:30;;;;;;;46.25;16.50;;;;;;;6.82;100.00;101323.78;1625676;88;21385;-89
2021/04/18 01:11:58;;;;;;;42.40;16.32;;;;;;;6.80;100.00;101322.67;1625522;88;21258;-88
2021/04/18 01:14:25;;;;;;;38.65;15.53;;;;;;;6.78;100.00;101325.27;1625732;88;21169;-88
2021/04/18 01:16:51;;;;;;;42.48;16.60;;;;;;;6.77;100.00;101321.77;1625666;88;21161;-88
2021/04/18 01:19:17;;;;;;;44.18;17.15;;;;;;;6.77;100.00;101320.43;1625726;88;20963;-89
2021/04/18 01:21:43;;;;;;;43.90;16.95;;;;;;;6.80;100.00;101320.52;1625669;87;21251;-88
2021/04/18 01:24:09;;;;;;;53.23;19.35;;;;;;;6.76;100.00;101319.30;1625637;88;21217;-88
2021/04/18 01:26:36;;;;;;;47.65;18.40;;;;;;;6.77;100.00;101316.94;1625607;87;21201;-88
2021/04/18 01:29:05;;;;;;;42.58;17.55;;;;;;;6.75;100.00;101309.62;1625699;88;21169;-89
2021/04/18 01:31:32;;;;;;;48.87;18.52;;;;;;;6.70;100.00;101308.92;1625610;88;21186;-89
2021/04/18 01:33:58;;;;;;;48.78;18.52;;;;;;;6.64;100.00;101312.47;1625586;88;21220;-89
2021/04/18 01:36:24;;;;;;;48.35;17.70;;;;;;;6.66;100.00;101313.08;1625665;88;21161;-89
2021/04/18 01:38:51;;;;;;;46.13;17.77;;;;;;;6.63;100.00;101312.70;1625767;88;21594;-89
2021/04/18 01:41:18;;;;;;;50.55;19.67;;;;;;;6.56;100.00;101310.89;1625619;87;21685;-88
2021/04/18 01:43:44;;;;;;;47.10;18.32;;;;;;;6.57;100.00;101307.16;1625687;87;21141;-89
2021/04/18 01:46:11;;;;;;;48.98;18.70;;;;;;;6.63;100.00;101305.48;1624672;88;21222;-88
2021/04/18 01:48:37;;;;;;;44.35;18.05;;;;;;;6.65;100.00;101300.73;1606188;88;21213;-89
2021/04/18 01:51:08;;;;;;;41.25;17.00;;;;;;;6.67;100.00;101301.84;1624652;88;21130;-89
2021/04/18 01:53:35;;;;;;;50.10;19.15;;;;;;;6.68;100.00;101304.84;1558576;91;21280;-88
2021/04/18 01:56:03;;;;;;;52.13;18.98;;;;;;;6.65;100.00;101303.91;1558655;92;21154;-88
2021/04/18 01:58:29;;;;;;;47.62;19.42;;;;;;;6.66;100.00;101306.39;1538936;92;21213;-89
2021/04/18 02:00:55;;;;;;;47.50;18.67;;;;;;;6.60;100.00;101305.39;1558501;92;20949;-89
2021/04/18 02:03:21;;;;;;;50.33;19.02;;;;;;;6.55;100.00;101303.05;1558589;92;21622;-89
2021/04/18 02:05:47;;;;;;;50.43;20.10;;;;;;;6.51;100.00;101305.34;1558730;92;20968;-89
2021/04/18 02:08:13;;;;;;;53.95;19.98;;;;;;;6.55;100.00;101303.05;1558679;92;21209;-89
2021/04/18 02:10:39;;;;;;;50.75;19.55;;;;;;;6.54;100.00;101300.90;1558626;92;21227;-89
2021/04/18 02:13:05;;;;;;;51.35;20.02;;;;;;;6.56;100.00;101294.82;1558611;92;20996;-89
2021/04/18 02:15:31;;;;;;;50.45;19.35;;;;;;;6.56;100.00;101300.70;1558586;92;21720;-89
2021/04/18 02:17:57;;;;;;;53.83;19.50;;;;;;;6.53;100.00;101295.75;1558541;92;21185;-89
2021/04/18 02:20:23;;;;;;;47.40;18.77;;;;;;;6.44;100.00;101299.23;1558662;92;21319;-89
2021/04/18 02:22:49;;;;;;;50.12;20.45;;;;;;;6.41;100.00;101301.48;1558700;92;21314;-88
2021/04/18 02:25:15;;;;;;;50.48;19.00;;;;;;;6.37;100.00;101299.77;1558600;92;21003;-89
2021/04/18 02:27:42;;;;;;;48.05;18.12;;;;;;;6.42;100.00;101305.30;1558642;92;21709;-89
2021/04/18 02:30:09;;;;;;;45.95;17.00;;;;;;;6.34;100.00;101301.53;1558640;92;21281;-89
2021/04/18 02:32:35;;;;;;;51.68;18.80;;;;;;;6.29;100.00;101303.50;1558522;92;21281;-90
2021/04/18 02:35:04;;;;;;;48.55;18.98;;;;;;;6.34;100.00;101303.69;1558751;92;21108;-89
2021/04/18 02:37:30;;;;;;;47.00;18.20;;;;;;;6.32;100.00;101303.59;1558406;92;21202;-89
2021/04/18 02:39:56;;;;;;;47.53;17.30;;;;;;;6.32;100.00;101299.58;1558581;92;21537;-89
2021/04/18 02:42:22;;;;;;;42.80;17.07;;;;;;;6.27;100.00;101296.22;1558538;92;21004;-88
2021/04/18 02:44:48;;;;;;;44.63;16.93;;;;;;;6.26;100.00;101296.42;1556613;89;21062;-89
2021/04/18 02:47:14;;;;;;;53.33;19.27;;;;;;;6.28;100.00;101301.05;1548284;92;21197;-88
2021/04/18 02:49:41;;;;;;;47.83;18.02;;;;;;;6.28;100.00;101295.17;1558314;90;21028;-89
2021/04/18 02:52:07;;;;;;;45.45;17.82;;;;;;;6.30;100.00;101299.80;1595014;90;21141;-89
2021/04/18 02:54:34;;;;;;;42.05;16.77;;;;;;;6.30;100.00;101300.33;1595052;89;21225;-89
2021/04/18 02:56:59;;;;;;;42.00;16.77;;;;;;;6.23;100.00;101296.84;1595132;90;21225;-89
2021/04/18 02:59:25;;;;;;;48.60;18.02;;;;;;;6.13;100.00;101297.31;1595104;89;21259;-89
2021/04/18 03:01:51;;;;;;;48.35;18.50;;;;;;;6.23;100.00;101295.51;1595098;90;21668;-89
2021/04/18 03:04:17;;;;;;;42.13;16.75;;;;;;;6.17;100.00;101297.70;1595169;88;21125;-89
2021/04/18 03:06:43;;;;;;;45.25;16.82;;;;;;;6.14;100.00;101298.42;1595122;89;21384;-89
2021/04/18 03:09:09;;;;;;;47.65;18.20;;;;;;;6.08;100.00;101297.94;1595181;89;20986;-89
2021/04/18 03:11:36;;;;;;;53.52;18.73;;;;;;;6.09;100.00;101298.27;1594967;88;21181;-90
2021/04/18 03:14:02;;;;;;;49.38;18.62;;;;;;;6.12;100.00;101301.84;1595065;89;21221;-90
2021/04/18 03:16:28;;;;;;;45.45;17.35;;;;;;;6.18;100.00;101300.67;1595078;90;21172;-89
2021/04/18 03:18:54;;;;;;;45.48;18.05;;;;;;;6.18;100.00;101300.67;1595192;88;21063;-88
2021/04/18 03:21:20;;;;;;;45.83;17.75;;;;;;;6.20;100.00;101295.41;1595162;90;20943;-89
2021/04/18 03:23:45;;;;;;;45.45;18.52;;;;;;;6.32;100.00;101302.25;1595174;89;21117;-90
2021/04/18 03:26:11;;;;;;;53.58;21.05;;;;;;;6.35;100.00;101295.98;1594895;90;21697;-89
2021/04/18 03:28:38;;;;;;;57.43;21.57;;;;;;;6.38;100.00;101296.03;1595169;89;21059;-90
2021/04/18 03:31:04;;;;;;;57.43;22.25;;;;;;;6.46;100.00;101301.67;1595301;89;21635;-89
2021/04/18 03:33:32;;;;;;;55.50;21.73;;;;;;;6.56;100.00;101299.36;1595251;90;21168;-88
2021/04/18 03:35:58;;;;;;;56.33;21.48;;;;;;;6.68;100.00;101304.32;1568947;90;21486;-89
2021/04/18 03:38:26;;;;;;;55.80;20.23;;;;;;;6.80;100.00;101302.58;1569005;90;21083;-89
2021/04/18 03:40:52;;;;;;;45.98;17.90;;;;;;;6.92;100.00;101303.23;1568773;91;21712;-88
2021/04/18 03:43:18;;;;;;;60.98;20.80;;;;;;;6.95;100.00;101298.25;1568995;91;21000;-88
2021/04/18 03:45:44;;;;;;;48.48;17.77;;;;;;;7.11;100.00;101292.84;1561535;89;21011;-88
2021/04/18 03:48:10;;;;;;;42.20;17.50;;;;;;;7.19;100.00;101295.26;1597520;89;21587;-88
2021/04/18 03:50:36;;;;;;;40.65;18.32;;;;;;;7.41;100.00;101300.20;1597402;89;21267;-88
2021/04/18 03:53:02;;;;;;;41.60;16.97;;;;;;;7.76;100.00;101302.33;1597553;89;21156;-88
2021/04/18 03:55:29;;;;;;;44.85;17.12;;;;;;;7.98;100.00;101304.86;1597482;89;21180;-88
2021/04/18 03:57:55;;;;;;;42.55;16.80;;;;;;;7.95;100.00;101300.77;1597577;89;21203;-88
2021/04/18 04:00:22;;;;;;;40.43;16.87;;;;;;;8.00;100.00;101300.11;1597505;89;21265;-88
2021/04/18 04:02:48;;;;;;;35.40;15.23;;;;;;;8.16;100.00;101299.47;1597369;89;21280;-88
2021/04/18 04:05:14;;;;;;;45.65;15.53;;;;;;;8.54;100.00;101291.66;1576750;89;20950;-88
2021/04/18 04:07:40;;;;;;;38.30;15.90;;;;;;;8.54;100.00;101291.66;1597536;89;21065;-87
2021/04/18 04:10:07;;;;;;;35.90;15.30;;;;;;;8.87;100.00;101290.33;1597465;89;21678;-88
2021/04/18 04:12:33;;;;;;;41.75;16.20;;;;;;;9.16;100.00;101287.80;1597557;89;21246;-91
2021/04/18 04:14:59;;;;;;;34.88;15.85;;;;;;;9.82;100.00;101285.74;1597467;89;21727;-91
2021/04/18 04:17:26;;;;;;;38.92;14.98;;;;;;;11.09;100.00;101283.25;1597481;89;20946;-91
2021/04/18 04:19:53;;;;;;;32.85;14.70;;;;;;;12.24;100.00;101282.91;1597559;89;21148;-91
2021/04/18 04:22:19;;;;;;;36.55;15.05;;;;;;;13.13;100.00;101273.41;1597325;89;21813;-92
2021/04/18 04:24:47;;;;;;;39.53;16.85;;;;;;;13.48;100.00;101272.04;1597693;89;21211;-92
2021/04/18 04:27:14;;;;;;;35.10;15.90;;;;;;;13.43;100.00;101270.65;1597564;89;21191;-92
2021/04/18 04:29:40;;;;;;;25.80;13.88;;;;;;;14.12;100.00;101279.09;1597536;89;21222;-92
2021/04/18 04:32:07;;;;;;;25.40;12.70;;;;;;;14.85;100.00;101275.41;1597443;89;22671;-93
2021/04/18 04:34:33;;;;;;;25.57;13.70;;;;;;;16.22;100.00;101279.69;1597459;89;21171;-92
2021/04/18 04:36:59;;;;;;;29.75;12.18;;;;;;;16.31;97.79;101285.34;1597348;88;21227;-93
2021/04/18 04:39:25;;;;;;;39.92;16.15;;;;;;;17.76;100.00;101273.71;1612444;88;21043;-93
2021/04/18 04:41:51;;;;;;;41.83;17.12;;;;;;;18.71;82.12;101277.33;1624787;87;20996;-93
2021/04/18 04:44:17;;;;;;;41.00;18.92;;;;;;;19.35;69.41;101278.16;1624802;88;21048;-90
2021/04/18 04:46:46;;;;;;;34.40;17.98;;;;;;;20.33;66.63;101275.08;1625313;87;21066;-91
2021/04/18 04:49:13;;;;;;;36.60;15.85;;;;;;;21.07;66.63;101274.66;1625623;88;21864;-91
2021/04/18 04:51:39;;;;;;;23.18;13.20;;;;;;;21.93;64.70;101271.45;1625578;88;21164;-91
2021/04/18 04:54:06;;;;;;;23.80;11.53;;;;;;;21.87;57.68;101269.19;1625753;87;21205;-90
2021/04/18 04:56:32;;;;;;;17.12;10.13;;;;;;;21.77;50.96;101271.11;1625782;88;21170;-90
2021/04/18 04:58:58;;;;;;;15.98;9.15;;;;;;;23.04;51.28;101266.88;1625651;88;21074;-91
2021/04/18 05:01:24;;;;;;;18.23;9.70;;;;;;;23.83;49.39;101273.45;1625709;87;21218;-91
2021/04/18 05:03:50;;;;;;;17.00;9.50;;;;;;;23.89;47.97;101270.17;1625635;88;21217;-91
2021/04/18 05:06:17;;;;;;;16.27;9.63;;;;;;;24.12;46.67;101271.21;1643375;87;20999;-90
2021/04/18 05:08:43;;;;;;;15.60;9.43;;;;;;;23.17;41.92;101265.62;1625570;88;21234;-92
2021/04/18 05:11:09;;;;;;;16.77;8.65;;;;;;;25.03;44.33;101261.73;1625615;88;21196;-91
2021/04/18 05:13:35;;;;;;;17.32;9.48;;;;;;;24.82;41.50;101264.56;1625584;88;21148;-92
2021/04/18 05:16:01;;;;;;;18.70;9.70;;;;;;;25.54;40.36;101259.53;1625624;88;20955;-92
2021/04/18 05:18:27;;;;;;;14.95;9.28;;;;;;;25.26;40.36;101257.44;1625769;88;21006;-91
2021/04/18 05:20:52;;;;;;;14.20;8.88;;;;;;;25.41;41.13;101257.33;1625624;88;20976;-91
2021/04/18 05:23:19;;;;;;;17.62;9.58;;;;;;;26.39;40.33;101253.65;1625726;88;21077;-92
2021/04/18 05:25:45;;;;;;;17.73;9.93;;;;;;;27.10;40.00;101256.18;1625623;88;21196;-92
2021/04/18 05:28:11;;;;;;;14.65;8.55;;;;;;;28.26;36.57;101244.65;1625529;88;21253;-93
2021/04/18 05:30:38;;;;;;;13.50;9.35;;;;;;;28.12;36.61;101249.34;1625737;88;21023;-93
2021/04/18 05:33:04;;;;;;;13.48;8.58;;;;;;;27.48;35.61;101252.80;1625596;87;21162;-92
2021/04/18 05:35:30;;;;;;;13.35;8.48;;;;;;;28.06;35.86;101247.98;1625557;88;21233;-93
2021/04/18 05:37:56;;;;;;;12.90;8.83;;;;;;;29.22;33.30;101251.84;1625564;88;21085;-93
2021/04/18 05:40:22;;;;;;;14.07;9.00;;;;;;;29.31;32.68;101252.39;1625725;88;21518;-94
2021/04/18 05:42:48;;;;;;;12.63;8.75;;;;;;;29.29;32.03;101252.75;1625811;88;21221;-93
2021/04/18 05:45:14;;;;;;;15.55;8.40;;;;;;;28.69;33.49;101255.24;1625827;87;21151;-93
2021/04/18 05:47:40;;;;;;;14.30;8.70;;;;;;;29.10;32.19;101251.45;1625596;88;21006;-93
2021/04/18 05:50:07;;;;;;;14.58;9.28;;;;;;;29.73;31.45;101256.43;1625622;88;21676;-92
2021/04/18 05:52:33;;;;;;;13.72;8.98;;;;;;;30.08;32.22;101250.56;1643463;86;21474;-94
2021/04/18 05:54:59;;;;;;;13.88;8.55;;;;;;;30.82;31.12;101251.85;1599888;88;21078;-94
2021/04/18 05:57:25;;;;;;;14.55;8.38;;;;;;;27.53;28.35;101258.63;1599916;88;21697;-86
2021/04/18 05:59:50;;;;;;;19.85;9.75;;;;;;;28.74;31.95;101253.56;1625701;88;21007;-87
2021/04/18 06:02:16;;;;;;;19.50;10.00;;;;;;;28.84;30.85;101257.70;1625558;88;21609;-86
2021/04/18 06:04:42;;;;;;;23.22;10.53;;;;;;;29.55;28.90;101257.52;1625684;88;21038;-86
2021/04/18 06:07:08;;;;;;;17.35;9.35;;;;;;;29.75;29.42;101254.09;1625685;88;20975;-86
2021/04/18 06:09:34;;;;;;;15.05;9.48;;;;;;;28.26;29.41;101254.35;1625661;87;21027;-87
2021/04/18 06:12:00;;;;;;;13.38;8.70;;;;;;;30.09;30.87;101260.52;1625760;88;20982;-86
2021/04/18 06:14:26;;;;;;;17.85;10.30;;;;;;;31.34;27.45;101251.92;1625673;88;21248;-86
2021/04/18 06:16:52;;;;;;;13.00;8.45;;;;;;;31.21;27.27;101245.27;1625503;88;21069;-88
2021/04/18 06:19:18;;;;;;;15.65;8.68;;;;;;;32.49;28.41;101245.03;1625619;88;20987;-87
2021/04/18 06:21:44;;;;;;;14.58;8.70;;;;;;;32.99;26.25;101234.77;1630572;88;21135;-87
2021/04/18 06:24:11;;;;;;;12.82;9.05;;;;;;;33.05;27.68;101239.95;1630848;88;21199;-86
2021/04/18 06:26:37;;;;;;;13.72;8.98;;;;;;;34.21;25.76;101240.17;1630751;88;21766;-86
2021/04/18 06:29:03;;;;;;;11.15;8.13;;;;;;;34.04;24.94;101239.64;1630764;88;21118;-85
2021/04/18 06:31:29;;;;;;;15.53;8.43;;;;;;;33.60;24.43;101243.13;1630739;88;21052;-86
2021/04/18 06:33:55;;;;;;;10.55;7.70;;;;;;;33.30;24.84;101244.95;1630874;88;21206;-86
2021/04/18 06:36:21;;;;;;;11.83;7.67;;;;;;;35.17;22.79;101236.56;1604920;88;20981;-86
2021/04/18 06:38:47;;;;;;;12.73;7.58;;;;;;;34.04;23.52;101241.05;1630970;88;21801;-85
2021/04/18 06:41:20;;;;;;;8.55;6.45;;;;;;;34.00;23.77;101243.80;1630910;88;20957;-86
2021/04/18 06:43:53;;;;;;;9.03;6.10;;;;;;;35.40;21.71;101233.15;1559912;91;21297;-85
2021/04/18 06:46:22;;;;;;;9.75;6.47;;;;;;;34.36;22.67;101233.28;1560659;90;21184;-85
2021/04/18 06:48:49;;;;;;;8.93;6.17;;;;;;;34.71;23.97;101239.91;1539526;91;21205;-86
2021/04/18 06:51:20;;;;;;;10.63;6.37;;;;;;;35.76;21.25;101229.98;1561995;91;21208;-85
2021/04/18 06:53:49;;;;;;;9.75;7.00;;;;;;;35.31;22.41;101234.25;1539375;91;21247;-86
2021/04/18 06:56:15;;;;;;;11.08;6.90;;;;;;;35.16;21.99;101232.97;1538112;92;21199;-86
2021/04/18 06:58:41;;;;;;;10.82;7.47;;;;;;;36.92;19.99;101230.23;1538055;93;21635;-86
2021/04/18 07:01:07;;;;;;;9.60;6.78;;;;;;;35.83;20.30;101231.33;1538222;91;20994;-86
2021/04/18 07:03:33;;;;;;;8.60;6.65;;;;;;;34.70;21.27;101229.89;1538262;92;22052;-86
2021/04/18 07:05:59;;;;;;;9.23;5.83;;;;;;;34.11;21.96;101232.61;1538255;92;21207;-85
2021/04/18 07:08:33;;;;;;;8.53;5.33;;;;;;;36.48;19.69;101229.89;1538377;91;21271;-85
2021/04/18 07:13:48;;;;;;;8.05;4.33;;;;;;;36.37;18.29;101232.23;1491520;94;21215;-86
2021/04/18 07:16:28;;;;;;;8.60;4.12;;;;;;;34.24;19.56;101235.73;1491406;96;21203;-86
2021/04/18 07:18:55;;;;;;;6.15;3.72;;;;;;;31.63;21.42;101232.84;1491358;95;21207;-85
2021/04/18 07:21:23;;;;;;;9.80;3.90;;;;;;;30.56;21.83;101227.70;1491645;95;21143;-95
2021/04/18 07:23:49;;;;;;;6.25;3.52;;;;;;;29.25;23.13;101235.23;1447369;99;21308;-84
2021/04/18 07:26:26;;;;;;;4.78;2.67;;;;;;;27.55;24.51;101229.42;1447476;97;21288;-85
2021/04/18 07:29:16;;;;;;;4.80;2.55;;;;;;;26.49;25.54;101231.02;1447618;97;21234;-85
2021/04/18 07:31:42;;;;;;;5.75;2.50;;;;;;;25.94;25.50;101229.81;1447464;97;21262;-85
2021/04/18 07:34:11;;;;;;;4.22;2.08;;;;;;;25.02;26.33;101232.55;1447327;97;21271;-85
2021/04/18 07:36:41;;;;;;;6.10;2.00;;;;;;;24.15;27.16;101229.23;1447559;97;21278;-84
2021/04/18 07:39:10;;;;;;;3.02;1.80;;;;;;;23.49;28.44;101230.61;1447424;99;21094;-84
2021/04/18 07:41:49;;;;;;;1.98;1.70;;;;;;;23.23;28.12;101231.30;1448692;98;21276;-85
2021/04/18 07:44:18;;;;;;;4.92;1.77;;;;;;;22.72;28.88;101229.73;1450704;98;21690;-84
2021/04/18 07:46:54;;;;;;;6.62;1.87;;;;;;;22.46;29.15;101229.77;1449206;97;21367;-84
2021/04/18 07:49:20;;;;;;;4.92;1.72;;;;;;;21.64;30.17;101222.64;1445072;99;21505;-84
2021/04/18 07:51:49;;;;;;;5.15;1.98;;;;;;;21.19;30.64;101223.37;1486371;96;21039;-84
2021/04/18 07:54:18;;;;;;;6.70;2.30;;;;;;;20.58;32.66;101232.61;1499246;92;21280;-84
2021/04/18 07:56:50;;;;;;;4.25;2.20;;;;;;;20.58;32.11;101234.78;1545642;92;21274;-84
2021/04/18 08:01:49;;;;;;;3.67;2.10;;;;;;;21.98;35.19;101215.62;1492308;96;21764;-86
2021/04/18 08:04:17;;;;;;;2.58;1.80;;;;;;;22.25;32.69;101215.89;1492468;96;21211;-84
2021/04/18 08:06:43;;;;;;;3.22;2.00;;;;;;;22.19;32.59;101212.50;1492409;96;21388;-85
2021/04/18 08:09:24;;;;;;;5.75;1.98;;;;;;;22.20;31.99;101207.80;1492351;96;21304;-85
2021/04/18 08:12:16;;;;;;;4.45;1.87;;;;;;;22.30;31.94;101207.50;1492396;96;21226;-85
2021/04/18 08:14:46;;;;;;;2.90;2.10;;;;;;;23.87;31.71;101200.06;1492484;96;22362;-85
2021/04/18 08:17:18;;;;;;;9.15;2.37;;;;;;;25.99;29.24;101195.05;1520675;93;21744;-84
2021/04/18 08:20:03;;;;;;;9.65;2.55;;;;;;;25.24;28.74;101193.54;1578160;90;22038;-86
2021/04/18 08:33:10;;;;;;;;;;;;;;;;;;;;;
2021/04/18 08:43:18;;;;;;;3.10;2.05;;;;;;;29.58;22.10;101172.05;1443832;99;21235;-85
2021/04/18 09:05:14;;;;;;;1.22;1.10;;;;;;;22.96;27.68;101179.73;1306112;108;21757;-84
2021/04/18 09:07:43;;;;;;;4.08;1.32;;;;;;;22.56;27.33;101164.89;1284215;109;21437;-85
2021/04/18 09:10:12;;;;;;;5.03;1.17;;;;;;;22.38;26.31;101173.73;1294659;109;21438;-84
2021/04/18 09:12:38;;;;;;;1.55;1.17;;;;;;;21.77;28.13;101173.70;1296510;109;21402;-86
2021/04/18 09:15:07;;;;;;;10.75;2.02;;;;;;;21.47;28.59;101165.84;1279728;109;21336;-85
2021/04/18 09:17:35;;;;;;;3.62;1.70;;;;;;;21.41;29.06;101169.03;1249188;113;21325;-85
2021/04/18 09:20:09;;;;;;;38.10;2.40;;;;;;;21.32;30.01;101172.55;1249854;112;21251;-85
2021/04/18 09:22:41;;;;;;;1.87;1.37;;;;;;;21.16;30.38;101167.81;1278406;108;21361;-84
2021/04/18 09:25:14;;;;;;;4.05;2.15;;;;;;;21.27;29.97;101167.20;1306805;108;21322;-84
2021/04/18 09:27:43;;;;;;;4.05;2.02;;;;;;;21.27;30.05;101163.09;1295429;109;21288;-85
2021/04/18 09:30:15;;;;;;;9.50;2.77;;;;;;;20.74;32.07;101169.48;1295405;109;21351;-85
2021/04/18 09:32:48;;;;;;;5.33;3.00;;;;;;;21.04;32.20;101157.45;1271328;110;21291;-87
2021/04/18 09:35:17;;;;;;;5.03;2.70;;;;;;;21.32;32.47;101158.84;1284612;110;21362;-85
2021/04/18 09:37:51;;;;;;;3.75;2.45;;;;;;;20.62;33.76;101163.78;1284571;110;23437;-85
2021/04/18 09:40:17;;;;;;;4.65;2.60;;;;;;;20.54;33.21;101159.05;1265145;112;21342;-85
2021/04/18 09:42:48;;;;;;;3.87;2.50;;;;;;;20.78;32.81;101154.02;1266985;111;21361;-85
2021/04/18 09:45:19;;;;;;;7.47;2.80;;;;;;;20.93;32.72;101164.33;1284019;110;21338;-86
2021/04/18 09:47:49;;;;;;;6.45;2.83;;;;;;;20.35;33.66;101162.78;1298707;110;21379;-85
2021/04/18 09:50:26;;;;;;;6.37;3.12;;;;;;;20.68;33.18;101161.16;1292471;111;21440;-85
2021/04/18 09:52:52;;;;;;;5.47;3.10;;;;;;;20.63;32.80;101157.17;1292357;111;21781;-84
2021/04/18 09:55:28;;;;;;;7.78;3.02;;;;;;;20.24;33.68;101158.67;1292375;111;21079;-85
2021/04/18 09:58:00;;;;;;;7.42;3.02;;;;;;;20.39;33.71;101149.27;1292329;109;21293;-86
2021/04/18 10:00:35;;;;;;;5.30;2.98;;;;;;;20.37;34.18;101147.39;1312720;107;21725;-86
2021/04/18 10:03:13;;;;;;;8.75;3.35;;;;;;;20.38;33.71;101151.20;1316621;107;21329;-85
2021/04/18 10:05:47;;;;;;;10.43;2.70;;;;;;;20.07;34.88;101153.87;1316443;109;21308;-85
2021/04/18 10:08:25;;;;;;;5.87;2.98;;;;;;;19.91;34.83;101152.59;1316510;107;21349;-85
2021/04/18 10:10:56;;;;;;;5.97;2.90;;;;;;;20.00;34.88;101151.30;1392782;101;21314;-85
2021/04/18 10:13:55;;;;;;;4.70;2.52;;;;;;;19.85;35.56;101156.56;1386582;102;21343;-85
2021/04/18 10:16:38;;;;;;;6.45;2.60;;;;;;;20.36;34.97;101147.16;1386934;101;21645;-85
2021/04/18 10:19:10;;;;;;;5.30;2.50;;;;;;;20.68;34.52;101154.30;1386447;103;21381;-85
2021/04/18 10:21:41;;;;;;;4.53;2.30;;;;;;;21.39;33.34;101143.31;1386865;102;21207;-85
2021/04/18 10:24:35;;;;;;;16.32;7.42;;;;;;;21.67;32.52;101145.77;1387309;102;21282;-86
2021/04/18 10:27:05;;;;;;;9.00;3.85;;;;;;;21.84;32.22;101140.29;1347226;105;21186;-86
2021/04/18 10:29:32;;;;;;;13.80;6.65;;;;;;;22.03;30.67;101135.03;1365950;101;21890;-85
2021/04/18 10:31:58;;;;;;;6.25;3.17;;;;;;;21.67;32.33;101130.67;1389557;103;21286;-85
2021/04/18 10:34:25;;;;;;;5.72;2.42;;;;;;;21.31;33.45;101133.09;1389425;103;21265;-86
2021/04/18 10:36:54;;;;;;;11.65;4.97;;;;;;;22.10;31.59;101130.68;1395793;97;21263;-87
2021/04/18 10:39:20;;;;;;;6.05;3.10;;;;;;;22.29;31.41;101124.05;1425596;99;21614;-87
2021/04/18 10:41:48;;;;;;;9.38;3.33;;;;;;;22.43;31.02;101119.98;1404501;100;21310;-87
2021/04/18 10:44:17;;;;;;;5.35;2.72;;;;;;;22.86;29.66;101122.36;1404517;100;21283;-87
2021/04/18 10:46:48;;;;;;;6.40;2.85;;;;;;;22.02;31.62;101123.25;1404718;100;21275;-87
2021/04/18 10:49:14;;;;;;;6.95;2.30;;;;;;;22.42;32.33;101116.20;1448865;97;21256;-86
2021/04/18 10:51:40;;;;;;;8.15;4.05;;;;;;;22.55;31.93;101115.75;1445350;99;21684;-86
2021/04/18 10:54:06;;;;;;;6.55;3.15;;;;;;;22.52;29.80;101110.34;1445291;99;21291;-86
2021/04/18 10:56:32;;;;;;;6.80;2.50;;;;;;;22.72;31.50;101109.40;1445427;98;21258;-87
2021/04/18 10:59:00;;;;;;;5.90;2.30;;;;;;;22.90;30.65;101107.61;1445110;98;33501;-85
2021/04/18 11:01:26;;;;;;;4.47;2.30;;;;;;;23.38;30.72;101096.53;1445216;98;21288;-86
2021/04/18 11:03:53;;;;;;;5.80;2.70;;;;;;;22.91;31.09;101096.03;1479176;93;21031;-88
2021/04/18 11:06:19;;;;;;;7.95;3.27;;;;;;;23.21;30.75;101098.27;1530717;93;21511;-87
2021/04/18 11:08:45;;;;;;;5.40;2.40;;;;;;;23.23;28.97;101094.59;1510348;93;21253;-88
2021/04/18 11:11:12;;;;;;;15.20;2.60;;;;;;;22.65;29.97;101100.30;1591859;88;21109;-89
2021/04/18 11:13:39;;;;;;;5.47;2.70;;;;;;;22.99;28.84;101101.30;1573398;89;21179;-84
2021/04/18 11:16:06;;;;;;;6.30;2.92;;;;;;;21.91;30.96;101098.63;1587768;90;21211;-85
2021/04/18 11:18:33;;;;;;;8.08;2.92;;;;;;;21.77;30.65;101097.45;1587798;90;21252;-84
2021/04/18 11:20:58;;;;;;;6.12;2.55;;;;;;;21.77;30.43;101095.51;1587827;90;21623;-85
2021/04/18 11:23:25;;;;;;;5.00;2.30;;;;;;;21.55;31.51;101096.45;1587721;90;21567;-84
2021/04/18 11:25:51;;;;;;;3.35;2.15;;;;;;;22.00;30.39;101092.02;1587922;90;21310;-85
2021/04/18 11:28:16;;;;;;;5.85;2.52;;;;;;;21.94;30.60;101096.61;1587779;90;20993;-84
2021/04/18 11:30:42;;;;;;;4.95;2.55;;;;;;;21.88;31.23;101091.05;1587823;90;21309;-84
2021/04/18 11:33:08;;;;;;;5.97;3.30;;;;;;;21.44;32.61;101091.60;1587651;90;21120;-87
2021/04/18 11:35:34;;;;;;;6.30;3.40;;;;;;;21.95;31.66;101086.70;1587654;90;21042;-87
2021/04/18 11:38:00;;;;;;;7.70;2.92;;;;;;;21.62;32.08;101079.54;1587838;90;21272;-87
2021/04/18 11:40:28;;;;;;;8.88;3.10;;;;;;;21.82;32.03;101075.31;1587938;90;21199;-87
2021/04/18 11:42:54;;;;;;;4.90;2.90;;;;;;;21.96;31.81;101068.28;1587796;90;21197;-87
2021/04/18 11:45:21;;;;;;;6.03;3.00;;;;;;;22.08;31.70;101066.25;1592148;90;21389;-87
2021/04/18 11:47:47;;;;;;;7.42;2.62;;;;;;;21.86;31.71;101066.69;1630136;87;21249;-85
2021/04/18 11:50:16;;;;;;;7.80;3.50;;;;;;;21.96;32.99;101064.97;1609459;89;21387;-86
2021/04/18 11:52:42;;;;;;;10.70;3.62;;;;;;;22.33;32.24;101061.88;1604558;88;21033;-86
2021/04/18 11:55:11;;;;;;;7.00;3.50;;;;;;;21.98;31.50;101064.66;1601112;89;21196;-86
2021/04/18 11:57:38;;;;;;;7.50;3.10;;;;;;;21.89;30.57;101060.55;1601031;89;21457;-86
2021/04/18 12:00:07;;;;;;;7.60;3.30;;;;;;;20.89;33.40;101066.09;1601000;89;21615;-87
2021/04/18 12:02:33;;;;;;;7.72;3.75;;;;;;;21.18;32.89;101063.58;1601129;89;21128;-86